sensor_id;sensor_type;location;lat;lon;timestamp;temperature;humidity
68719;DHT22;55696;52.138;5.444;2023-09-19T00:00:43;18.50;68.70
68719;DHT22;55696;52.138;5.444;2023-09-19T00:03:10;18.50;68.50
68719;DHT22;55696;52.138;5.444;2023-09-19T00:05:39;18.70;68.60
68719;DHT22;55696;52.138;5.444;2023-09-19T00:08:06;18.60;68.60
68719;DHT22;55696;52.138;5.444;2023-09-19T00:10:33;18.50;68.50
68719;DHT22;55696;52.138;5.444;2023-09-19T00:13:05;18.60;68.60
68719;DHT22;55696;52.138;5.444;2023-09-19T00:15:45;18.50;68.60
68719;DHT22;55696;52.138;5.444;2023-09-19T00:18:15;18.50;68.90
68719;DHT22;55696;52.138;5.444;2023-09-19T00:20:42;18.40;68.60
68719;DHT22;55696;52.138;5.444;2023-09-19T00:23:09;18.50;68.50
68719;DHT22;55696;52.138;5.444;2023-09-19T00:25:36;18.40;68.40
68719;DHT22;55696;52.138;5.444;2023-09-19T00:28:05;18.40;68.50
68719;DHT22;55696;52.138;5.444;2023-09-19T00:30:34;18.60;68.50
68719;DHT22;55696;52.138;5.444;2023-09-19T00:33:01;18.40;68.40
68719;DHT22;55696;52.138;5.444;2023-09-19T00:35:33;18.30;68.20
68719;DHT22;55696;52.138;5.444;2023-09-19T00:38:00;18.50;68.30
68719;DHT22;55696;52.138;5.444;2023-09-19T00:40:27;18.90;68.60
68719;DHT22;55696;52.138;5.444;2023-09-19T00:42:57;18.40;68.40
68719;DHT22;55696;52.138;5.444;2023-09-19T00:45:26;18.40;68.80
68719;DHT22;55696;52.138;5.444;2023-09-19T00:47:55;18.50;68.40
68719;DHT22;55696;52.138;5.444;2023-09-19T00:50:24;18.70;68.60
68719;DHT22;55696;52.138;5.444;2023-09-19T00:52:56;18.40;68.90
68719;DHT22;55696;52.138;5.444;2023-09-19T00:55:24;18.30;69.10
68719;DHT22;55696;52.138;5.444;2023-09-19T00:57:51;18.30;68.60
68719;DHT22;55696;52.138;5.444;2023-09-19T01:00:19;18.50;68.60
68719;DHT22;55696;52.138;5.444;2023-09-19T01:02:47;18.50;69.40
68719;DHT22;55696;52.138;5.444;2023-09-19T01:05:15;18.50;68.60
68719;DHT22;55696;52.138;5.444;2023-09-19T01:07:42;18.60;68.50
68719;DHT22;55696;52.138;5.444;2023-09-19T01:10:17;18.50;68.40
68719;DHT22;55696;52.138;5.444;2023-09-19T01:15:50;18.50;69.40
68719;DHT22;55696;52.138;5.444;2023-09-19T01:21:28;19.30;70.30
68719;DHT22;55696;52.138;5.444;2023-09-19T01:30:00;18.50;69.40
68719;DHT22;55696;52.138;5.444;2023-09-19T01:32:27;18.30;68.80
68719;DHT22;55696;52.138;5.444;2023-09-19T01:34:56;18.40;68.90
68719;DHT22;55696;52.138;5.444;2023-09-19T01:37:25;19.10;69.60
68719;DHT22;55696;52.138;5.444;2023-09-19T01:40:13;18.40;69.10
68719;DHT22;55696;52.138;5.444;2023-09-19T01:45:51;18.40;70.00
68719;DHT22;55696;52.138;5.444;2023-09-19T01:51:11;18.50;69.80
68719;DHT22;55696;52.138;5.444;2023-09-19T01:56:34;18.40;70.10
68719;DHT22;55696;52.138;5.444;2023-09-19T01:59:10;18.30;70.00
68719;DHT22;55696;52.138;5.444;2023-09-19T02:01:40;18.30;70.40
68719;DHT22;55696;52.138;5.444;2023-09-19T02:04:11;18.30;70.00
68719;DHT22;55696;52.138;5.444;2023-09-19T02:06:41;18.20;69.50
68719;DHT22;55696;52.138;5.444;2023-09-19T02:09:08;18.30;70.20
68719;DHT22;55696;52.138;5.444;2023-09-19T02:11:35;18.30;69.40
68719;DHT22;55696;52.138;5.444;2023-09-19T02:14:04;18.40;69.30
68719;DHT22;55696;52.138;5.444;2023-09-19T02:16:35;18.40;69.40
68719;DHT22;55696;52.138;5.444;2023-09-19T02:19:03;18.40;69.30
68719;DHT22;55696;52.138;5.444;2023-09-19T02:21:32;18.30;69.30
68719;DHT22;55696;52.138;5.444;2023-09-19T02:24:00;18.10;69.00
68719;DHT22;55696;52.138;5.444;2023-09-19T02:26:27;18.20;69.30
68719;DHT22;55696;52.138;5.444;2023-09-19T02:28:54;18.20;69.00
68719;DHT22;55696;52.138;5.444;2023-09-19T02:31:22;18.10;69.00
68719;DHT22;55696;52.138;5.444;2023-09-19T02:33:49;18.20;69.00
68719;DHT22;55696;52.138;5.444;2023-09-19T02:36:15;18.30;68.90
68719;DHT22;55696;52.138;5.444;2023-09-19T02:38:44;18.20;68.70
68719;DHT22;55696;52.138;5.444;2023-09-19T02:41:10;19.00;69.00
68719;DHT22;55696;52.138;5.444;2023-09-19T02:43:38;18.20;68.50
68719;DHT22;55696;52.138;5.444;2023-09-19T02:46:05;18.20;68.40
68719;DHT22;55696;52.138;5.444;2023-09-19T02:48:33;18.20;68.40
68719;DHT22;55696;52.138;5.444;2023-09-19T02:51:01;18.20;68.30
68719;DHT22;55696;52.138;5.444;2023-09-19T02:53:28;18.20;68.20
68719;DHT22;55696;52.138;5.444;2023-09-19T02:55:55;18.00;68.00
68719;DHT22;55696;52.138;5.444;2023-09-19T02:58:22;18.10;68.00
68719;DHT22;55696;52.138;5.444;2023-09-19T03:00:51;18.10;68.00
68719;DHT22;55696;52.138;5.444;2023-09-19T03:03:18;17.80;67.70
68719;DHT22;55696;52.138;5.444;2023-09-19T03:05:46;18.00;67.90
68719;DHT22;55696;52.138;5.444;2023-09-19T03:08:15;17.90;68.60
68719;DHT22;55696;52.138;5.444;2023-09-19T03:10:45;18.40;67.90
68719;DHT22;55696;52.138;5.444;2023-09-19T03:13:12;17.90;68.70
68719;DHT22;55696;52.138;5.444;2023-09-19T03:15:43;17.80;67.70
68719;DHT22;55696;52.138;5.444;2023-09-19T03:18:20;18.00;68.20
68719;DHT22;55696;52.138;5.444;2023-09-19T03:20:57;17.70;67.40
68719;DHT22;55696;52.138;5.444;2023-09-19T03:23:29;17.70;68.40
68719;DHT22;55696;52.138;5.444;2023-09-19T03:25:56;17.60;67.50
68719;DHT22;55696;52.138;5.444;2023-09-19T03:28:23;18.10;67.50
68719;DHT22;55696;52.138;5.444;2023-09-19T03:31:04;17.60;67.20
68719;DHT22;55696;52.138;5.444;2023-09-19T03:33:34;17.50;68.30
68719;DHT22;55696;52.138;5.444;2023-09-19T03:36:02;17.80;67.30
68719;DHT22;55696;52.138;5.444;2023-09-19T03:38:33;17.50;67.30
68719;DHT22;55696;52.138;5.444;2023-09-19T03:41:01;17.40;67.00
68719;DHT22;55696;52.138;5.444;2023-09-19T03:43:28;17.40;66.90
68719;DHT22;55696;52.138;5.444;2023-09-19T03:45:55;17.30;66.60
68719;DHT22;55696;52.138;5.444;2023-09-19T03:48:23;17.30;66.50
68719;DHT22;55696;52.138;5.444;2023-09-19T03:50:51;17.30;66.50
68719;DHT22;55696;52.138;5.444;2023-09-19T03:53:19;17.20;66.40
68719;DHT22;55696;52.138;5.444;2023-09-19T03:55:46;17.70;66.60
68719;DHT22;55696;52.138;5.444;2023-09-19T03:58:13;17.20;66.40
68719;DHT22;55696;52.138;5.444;2023-09-19T04:00:40;17.20;66.00
68719;DHT22;55696;52.138;5.444;2023-09-19T04:03:07;17.90;66.40
68719;DHT22;55696;52.138;5.444;2023-09-19T04:05:34;17.20;65.90
68719;DHT22;55696;52.138;5.444;2023-09-19T04:08:01;17.80;66.00
68719;DHT22;55696;52.138;5.444;2023-09-19T04:10:28;17.10;65.60
68719;DHT22;55696;52.138;5.444;2023-09-19T04:12:56;17.10;65.60
68719;DHT22;55696;52.138;5.444;2023-09-19T04:15:24;17.10;65.60
68719;DHT22;55696;52.138;5.444;2023-09-19T04:17:53;17.10;65.80
68719;DHT22;55696;52.138;5.444;2023-09-19T04:20:20;16.90;65.10
68719;DHT22;55696;52.138;5.444;2023-09-19T04:22:49;17.00;65.10
68719;DHT22;55696;52.138;5.444;2023-09-19T04:25:16;17.10;65.30
68719;DHT22;55696;52.138;5.444;2023-09-19T04:27:44;17.10;65.00
68719;DHT22;55696;52.138;5.444;2023-09-19T04:30:11;17.30;65.00
68719;DHT22;55696;52.138;5.444;2023-09-19T04:32:39;17.00;64.70
68719;DHT22;55696;52.138;5.444;2023-09-19T04:35:10;17.00;64.60
68719;DHT22;55696;52.138;5.444;2023-09-19T04:37:40;17.00;65.50
68719;DHT22;55696;52.138;5.444;2023-09-19T04:40:11;17.30;65.50
68719;DHT22;55696;52.138;5.444;2023-09-19T04:42:44;17.10;64.80
68719;DHT22;55696;52.138;5.444;2023-09-19T04:45:11;16.90;64.40
68719;DHT22;55696;52.138;5.444;2023-09-19T04:47:38;17.10;64.50
68719;DHT22;55696;52.138;5.444;2023-09-19T04:50:07;16.90;64.50
68719;DHT22;55696;52.138;5.444;2023-09-19T04:52:41;17.10;64.60
68719;DHT22;55696;52.138;5.444;2023-09-19T04:55:15;16.90;65.00
68719;DHT22;55696;52.138;5.444;2023-09-19T04:57:47;17.00;64.30
68719;DHT22;55696;52.138;5.444;2023-09-19T05:00:18;16.90;64.30
68719;DHT22;55696;52.138;5.444;2023-09-19T05:02:48;17.00;65.10
68719;DHT22;55696;52.138;5.444;2023-09-19T05:05:15;17.00;64.30
68719;DHT22;55696;52.138;5.444;2023-09-19T05:07:44;17.00;64.10
68719;DHT22;55696;52.138;5.444;2023-09-19T05:10:11;16.90;64.10
68719;DHT22;55696;52.138;5.444;2023-09-19T05:12:39;17.00;64.10
68719;DHT22;55696;52.138;5.444;2023-09-19T05:15:07;17.70;64.60
68719;DHT22;55696;52.138;5.444;2023-09-19T05:17:34;16.90;64.60
68719;DHT22;55696;52.138;5.444;2023-09-19T05:20:02;17.00;64.50
68719;DHT22;55696;52.138;5.444;2023-09-19T05:22:42;17.00;64.50
68719;DHT22;55696;52.138;5.444;2023-09-19T05:25:09;17.00;64.50
68719;DHT22;55696;52.138;5.444;2023-09-19T05:27:37;16.90;65.30
68719;DHT22;55696;52.138;5.444;2023-09-19T05:30:04;16.90;64.20
68719;DHT22;55696;52.138;5.444;2023-09-19T05:32:31;17.00;64.40
68719;DHT22;55696;52.138;5.444;2023-09-19T05:34:58;16.90;64.20
68719;DHT22;55696;52.138;5.444;2023-09-19T05:37:25;17.00;64.40
68719;DHT22;55696;52.138;5.444;2023-09-19T05:39:53;16.90;64.60
68719;DHT22;55696;52.138;5.444;2023-09-19T05:42:20;16.80;64.50
68719;DHT22;55696;52.138;5.444;2023-09-19T05:44:47;18.00;65.20
68719;DHT22;55696;52.138;5.444;2023-09-19T05:47:14;17.40;64.90
68719;DHT22;55696;52.138;5.444;2023-09-19T05:49:40;16.80;64.40
68719;DHT22;55696;52.138;5.444;2023-09-19T05:52:08;17.00;64.50
68719;DHT22;55696;52.138;5.444;2023-09-19T05:54:35;16.90;64.80
68719;DHT22;55696;52.138;5.444;2023-09-19T05:57:01;17.00;64.50
68719;DHT22;55696;52.138;5.444;2023-09-19T05:59:28;17.10;64.60
68719;DHT22;55696;52.138;5.444;2023-09-19T06:01:55;17.10;64.60
68719;DHT22;55696;52.138;5.444;2023-09-19T06:04:22;17.80;64.70
68719;DHT22;55696;52.138;5.444;2023-09-19T06:06:49;17.30;64.30
68719;DHT22;55696;52.138;5.444;2023-09-19T06:09:16;17.30;64.20
68719;DHT22;55696;52.138;5.444;2023-09-19T06:11:43;17.20;64.30
68719;DHT22;55696;52.138;5.444;2023-09-19T06:14:11;17.20;64.20
68719;DHT22;55696;52.138;5.444;2023-09-19T06:16:38;17.20;64.20
68719;DHT22;55696;52.138;5.444;2023-09-19T06:19:06;17.20;64.30
68719;DHT22;55696;52.138;5.444;2023-09-19T06:21:36;17.50;64.30
68719;DHT22;55696;52.138;5.444;2023-09-19T06:24:03;17.40;64.40
68719;DHT22;55696;52.138;5.444;2023-09-19T06:26:30;17.40;64.20
68719;DHT22;55696;52.138;5.444;2023-09-19T06:28:57;17.40;64.20
68719;DHT22;55696;52.138;5.444;2023-09-19T06:31:26;17.60;64.30
68719;DHT22;55696;52.138;5.444;2023-09-19T06:33:53;17.50;64.10
68719;DHT22;55696;52.138;5.444;2023-09-19T06:36:20;17.50;64.00
68719;DHT22;55696;52.138;5.444;2023-09-19T06:38:47;17.60;64.10
68719;DHT22;55696;52.138;5.444;2023-09-19T06:41:15;17.70;64.00
68719;DHT22;55696;52.138;5.444;2023-09-19T06:43:44;17.70;64.00
68719;DHT22;55696;52.138;5.444;2023-09-19T06:46:11;17.60;64.00
68719;DHT22;55696;52.138;5.444;2023-09-19T06:48:39;18.00;64.20
68719;DHT22;55696;52.138;5.444;2023-09-19T06:51:07;17.70;64.00
68719;DHT22;55696;52.138;5.444;2023-09-19T06:53:34;17.70;64.30
68719;DHT22;55696;52.138;5.444;2023-09-19T06:56:02;17.80;63.90
68719;DHT22;55696;52.138;5.444;2023-09-19T06:58:29;17.90;64.00
68719;DHT22;55696;52.138;5.444;2023-09-19T07:00:58;17.80;64.00
68719;DHT22;55696;52.138;5.444;2023-09-19T07:03:25;17.90;64.10
68719;DHT22;55696;52.138;5.444;2023-09-19T07:05:53;17.80;64.20
68719;DHT22;55696;52.138;5.444;2023-09-19T07:08:22;18.20;64.30
68719;DHT22;55696;52.138;5.444;2023-09-19T07:10:49;18.00;64.20
68719;DHT22;55696;52.138;5.444;2023-09-19T07:13:16;17.90;64.20
68719;DHT22;55696;52.138;5.444;2023-09-19T07:15:44;18.00;64.30
68719;DHT22;55696;52.138;5.444;2023-09-19T07:18:14;18.00;64.30
68719;DHT22;55696;52.138;5.444;2023-09-19T07:20:44;18.10;64.50
68719;DHT22;55696;52.138;5.444;2023-09-19T07:23:19;18.10;64.50
68719;DHT22;55696;52.138;5.444;2023-09-19T07:25:49;18.20;65.00
68719;DHT22;55696;52.138;5.444;2023-09-19T07:28:16;18.40;64.40
68719;DHT22;55696;52.138;5.444;2023-09-19T07:30:43;19.10;64.60
68719;DHT22;55696;52.138;5.444;2023-09-19T07:33:10;18.30;64.10
68719;DHT22;55696;52.138;5.444;2023-09-19T07:35:38;18.40;64.00
68719;DHT22;55696;52.138;5.444;2023-09-19T07:38:08;19.10;64.20
68719;DHT22;55696;52.138;5.444;2023-09-19T07:40:38;18.60;63.90
68719;DHT22;55696;52.138;5.444;2023-09-19T07:43:05;19.00;64.00
68719;DHT22;55696;52.138;5.444;2023-09-19T07:45:33;18.40;63.70
68719;DHT22;55696;52.138;5.444;2023-09-19T07:48:00;18.60;63.60
68719;DHT22;55696;52.138;5.444;2023-09-19T07:50:34;18.60;63.40
68719;DHT22;55696;52.138;5.444;2023-09-19T07:53:03;18.60;63.60
68719;DHT22;55696;52.138;5.444;2023-09-19T07:55:32;18.80;63.40
68719;DHT22;55696;52.138;5.444;2023-09-19T07:58:01;18.80;63.30
68719;DHT22;55696;52.138;5.444;2023-09-19T08:00:30;18.80;64.00
68719;DHT22;55696;52.138;5.444;2023-09-19T08:02:59;19.00;63.00
68719;DHT22;55696;52.138;5.444;2023-09-19T08:05:34;18.90;62.70
68719;DHT22;55696;52.138;5.444;2023-09-19T08:08:01;19.00;62.80
68719;DHT22;55696;52.138;5.444;2023-09-19T08:10:28;19.00;63.70
68719;DHT22;55696;52.138;5.444;2023-09-19T08:13:02;19.00;62.70
68719;DHT22;55696;52.138;5.444;2023-09-19T08:15:29;19.20;62.80
68719;DHT22;55696;52.138;5.444;2023-09-19T08:17:56;19.30;62.60
68719;DHT22;55696;52.138;5.444;2023-09-19T08:20:23;19.30;62.50
68719;DHT22;55696;52.138;5.444;2023-09-19T08:22:51;19.40;62.30
68719;DHT22;55696;52.138;5.444;2023-09-19T08:25:22;19.40;62.20
68719;DHT22;55696;52.138;5.444;2023-09-19T08:27:50;19.50;62.10
68719;DHT22;55696;52.138;5.444;2023-09-19T08:30:19;19.50;62.10
68719;DHT22;55696;52.138;5.444;2023-09-19T08:32:51;19.40;62.10
68719;DHT22;55696;52.138;5.444;2023-09-19T08:35:17;19.40;62.00
68719;DHT22;55696;52.138;5.444;2023-09-19T08:37:44;19.70;61.90
68719;DHT22;55696;52.138;5.444;2023-09-19T08:40:14;19.70;61.70
68719;DHT22;55696;52.138;5.444;2023-09-19T08:43:07;20.10;61.90
68719;DHT22;55696;52.138;5.444;2023-09-19T08:45:35;19.80;62.50
68719;DHT22;55696;52.138;5.444;2023-09-19T08:48:22;19.90;61.60
68719;DHT22;55696;52.138;5.444;2023-09-19T08:50:53;19.90;61.80
68719;DHT22;55696;52.138;5.444;2023-09-19T08:53:42;20.70;62.20
68719;DHT22;55696;52.138;5.444;2023-09-19T08:56:17;20.10;61.90
68719;DHT22;55696;52.138;5.444;2023-09-19T08:58:51;20.20;61.50
68719;DHT22;55696;52.138;5.444;2023-09-19T09:01:21;20.20;61.60
68719;DHT22;55696;52.138;5.444;2023-09-19T09:04:01;20.30;61.00
68719;DHT22;55696;52.138;5.444;2023-09-19T09:06:29;20.30;61.30
68719;DHT22;55696;52.138;5.444;2023-09-19T09:08:56;20.20;61.00
68719;DHT22;55696;52.138;5.444;2023-09-19T09:11:23;20.40;60.60
68719;DHT22;55696;52.138;5.444;2023-09-19T09:13:51;20.60;60.40
68719;DHT22;55696;52.138;5.444;2023-09-19T09:16:18;21.20;60.40
68719;DHT22;55696;52.138;5.444;2023-09-19T09:18:47;20.60;59.80
68719;DHT22;55696;52.138;5.444;2023-09-19T09:21:21;20.70;59.70
68719;DHT22;55696;52.138;5.444;2023-09-19T09:23:49;20.90;59.30
68719;DHT22;55696;52.138;5.444;2023-09-19T09:26:41;20.70;59.80
68719;DHT22;55696;52.138;5.444;2023-09-19T09:29:09;20.90;59.10
68719;DHT22;55696;52.138;5.444;2023-09-19T09:31:36;21.10;59.00
68719;DHT22;55696;52.138;5.444;2023-09-19T09:34:04;21.10;58.40
68719;DHT22;55696;52.138;5.444;2023-09-19T09:36:36;21.10;58.20
68719;DHT22;55696;52.138;5.444;2023-09-19T09:39:04;21.30;58.10
68719;DHT22;55696;52.138;5.444;2023-09-19T09:41:43;21.10;57.70
68719;DHT22;55696;52.138;5.444;2023-09-19T09:44:14;20.90;57.30
68719;DHT22;55696;52.138;5.444;2023-09-19T09:46:46;21.30;57.50
68719;DHT22;55696;52.138;5.444;2023-09-19T09:49:26;21.10;56.90
68719;DHT22;55696;52.138;5.444;2023-09-19T09:52:02;21.80;57.40
68719;DHT22;55696;52.138;5.444;2023-09-19T09:55:00;21.40;57.00
68719;DHT22;55696;52.138;5.444;2023-09-19T09:57:28;21.50;56.90
68719;DHT22;55696;52.138;5.444;2023-09-19T09:59:59;21.60;56.30
68719;DHT22;55696;52.138;5.444;2023-09-19T10:02:38;21.40;56.40
68719;DHT22;55696;52.138;5.444;2023-09-19T10:08:11;21.70;56.00
68719;DHT22;55696;52.138;5.444;2023-09-19T10:10:40;21.70;56.50
68719;DHT22;55696;52.138;5.444;2023-09-19T10:13:12;21.80;56.00
68719;DHT22;55696;52.138;5.444;2023-09-19T10:15:42;22.40;56.10
68719;DHT22;55696;52.138;5.444;2023-09-19T10:18:19;21.60;55.20
68719;DHT22;55696;52.138;5.444;2023-09-19T10:20:47;21.50;55.30
68719;DHT22;55696;52.138;5.444;2023-09-19T10:23:18;22.40;56.20
68719;DHT22;55696;52.138;5.444;2023-09-19T10:25:52;21.40;56.00
68719;DHT22;55696;52.138;5.444;2023-09-19T10:28:21;21.30;57.10
68719;DHT22;55696;52.138;5.444;2023-09-19T10:30:52;21.20;56.00
68719;DHT22;55696;52.138;5.444;2023-09-19T10:33:24;21.50;56.10
68719;DHT22;55696;52.138;5.444;2023-09-19T10:35:54;21.40;55.80
68719;DHT22;55696;52.138;5.444;2023-09-19T10:38:27;21.20;55.30
68719;DHT22;55696;52.138;5.444;2023-09-19T10:40:56;21.80;55.90
68719;DHT22;55696;52.138;5.444;2023-09-19T10:43:32;22.30;56.20
68719;DHT22;55696;52.138;5.444;2023-09-19T10:46:06;21.60;55.60
68719;DHT22;55696;52.138;5.444;2023-09-19T10:48:34;21.90;55.10
68719;DHT22;55696;52.138;5.444;2023-09-19T10:51:18;22.10;54.90
68719;DHT22;55696;52.138;5.444;2023-09-19T10:54:17;22.40;55.00
68719;DHT22;55696;52.138;5.444;2023-09-19T10:56:44;22.10;54.50
68719;DHT22;55696;52.138;5.444;2023-09-19T10:59:18;21.80;54.50
68719;DHT22;55696;52.138;5.444;2023-09-19T11:01:49;22.80;55.40
68719;DHT22;55696;52.138;5.444;2023-09-19T11:04:33;22.00;54.80
68719;DHT22;55696;52.138;5.444;2023-09-19T11:07:07;22.10;55.40
68719;DHT22;55696;52.138;5.444;2023-09-19T11:09:54;22.40;55.10
68719;DHT22;55696;52.138;5.444;2023-09-19T11:26:51;22.20;54.00
68719;DHT22;55696;52.138;5.444;2023-09-19T11:29:30;22.30;53.80
68719;DHT22;55696;52.138;5.444;2023-09-19T11:31:58;23.00;54.10
68719;DHT22;55696;52.138;5.444;2023-09-19T11:40:05;22.80;53.30
68719;DHT22;55696;52.138;5.444;2023-09-19T11:48:24;22.30;53.90
68719;DHT22;55696;52.138;5.444;2023-09-19T11:50:54;22.00;53.90
68719;DHT22;55696;52.138;5.444;2023-09-19T11:53:23;22.70;54.30
68719;DHT22;55696;52.138;5.444;2023-09-19T11:55:50;22.50;54.00
68719;DHT22;55696;52.138;5.444;2023-09-19T11:58:19;22.90;54.20
68719;DHT22;55696;52.138;5.444;2023-09-19T12:00:54;22.50;53.30
68719;DHT22;55696;52.138;5.444;2023-09-19T12:03:21;22.50;53.00
68719;DHT22;55696;52.138;5.444;2023-09-19T12:05:49;22.60;52.70
68719;DHT22;55696;52.138;5.444;2023-09-19T12:08:16;22.60;52.40
68719;DHT22;55696;52.138;5.444;2023-09-19T12:10:51;22.40;52.00
68719;DHT22;55696;52.138;5.444;2023-09-19T12:13:21;22.30;52.20
68719;DHT22;55696;52.138;5.444;2023-09-19T12:15:48;22.30;52.30
68719;DHT22;55696;52.138;5.444;2023-09-19T12:20:55;22.90;52.90
68719;DHT22;55696;52.138;5.444;2023-09-19T12:23:22;22.30;52.30
68719;DHT22;55696;52.138;5.444;2023-09-19T12:25:49;22.40;52.20
68719;DHT22;55696;52.138;5.444;2023-09-19T12:28:20;22.30;52.60
68719;DHT22;55696;52.138;5.444;2023-09-19T12:30:49;22.10;52.60
68719;DHT22;55696;52.138;5.444;2023-09-19T12:33:19;22.70;53.00
68719;DHT22;55696;52.138;5.444;2023-09-19T12:35:47;22.10;53.20
68719;DHT22;55696;52.138;5.444;2023-09-19T12:38:26;22.20;53.00
68719;DHT22;55696;52.138;5.444;2023-09-19T12:41:02;22.70;53.40
68719;DHT22;55696;52.138;5.444;2023-09-19T12:43:31;22.70;53.00
68719;DHT22;55696;52.138;5.444;2023-09-19T12:46:00;22.30;52.70
68719;DHT22;55696;52.138;5.444;2023-09-19T12:48:27;22.20;52.90
68719;DHT22;55696;52.138;5.444;2023-09-19T12:51:07;22.10;53.20
68719;DHT22;55696;52.138;5.444;2023-09-19T12:53:45;22.10;53.30
68719;DHT22;55696;52.138;5.444;2023-09-19T12:56:14;22.40;54.20
68719;DHT22;55696;52.138;5.444;2023-09-19T12:58:53;21.90;54.90
68719;DHT22;55696;52.138;5.444;2023-09-19T13:01:24;21.90;54.30
68719;DHT22;55696;52.138;5.444;2023-09-19T13:04:16;21.90;54.30
68719;DHT22;55696;52.138;5.444;2023-09-19T13:06:49;22.00;54.30
68719;DHT22;55696;52.138;5.444;2023-09-19T13:09:18;22.10;54.00
68719;DHT22;55696;52.138;5.444;2023-09-19T13:11:47;22.20;54.10
68719;DHT22;55696;52.138;5.444;2023-09-19T13:14:25;22.20;53.90
68719;DHT22;55696;52.138;5.444;2023-09-19T13:16:58;22.40;53.70
68719;DHT22;55696;52.138;5.444;2023-09-19T13:19:47;22.40;53.40
68719;DHT22;55696;52.138;5.444;2023-09-19T13:22:40;22.30;53.50
68719;DHT22;55696;52.138;5.444;2023-09-19T13:25:14;22.20;54.90
68719;DHT22;55696;52.138;5.444;2023-09-19T13:27:42;22.10;54.00
68719;DHT22;55696;52.138;5.444;2023-09-19T13:30:11;21.90;54.40
68719;DHT22;55696;52.138;5.444;2023-09-19T13:32:38;21.80;54.70
68719;DHT22;55696;52.138;5.444;2023-09-19T13:35:07;22.20;55.30
68719;DHT22;55696;52.138;5.444;2023-09-19T13:37:38;21.90;55.40
68719;DHT22;55696;52.138;5.444;2023-09-19T13:40:11;22.00;55.10
68719;DHT22;55696;52.138;5.444;2023-09-19T13:42:39;22.10;54.90
68719;DHT22;55696;52.138;5.444;2023-09-19T13:45:09;22.10;54.50
68719;DHT22;55696;52.138;5.444;2023-09-19T13:47:39;22.20;54.10
68719;DHT22;55696;52.138;5.444;2023-09-19T13:50:06;22.50;53.60
68719;DHT22;55696;52.138;5.444;2023-09-19T13:52:34;22.60;53.70
68719;DHT22;55696;52.138;5.444;2023-09-19T13:55:01;22.70;53.70
68719;DHT22;55696;52.138;5.444;2023-09-19T13:57:27;22.70;53.60
68719;DHT22;55696;52.138;5.444;2023-09-19T13:59:55;22.70;53.40
68719;DHT22;55696;52.138;5.444;2023-09-19T14:02:22;22.70;53.40
68719;DHT22;55696;52.138;5.444;2023-09-19T14:04:53;22.60;53.40
68719;DHT22;55696;52.138;5.444;2023-09-19T14:07:21;22.40;53.60
68719;DHT22;55696;52.138;5.444;2023-09-19T14:09:48;22.40;53.80
68719;DHT22;55696;52.138;5.444;2023-09-19T14:12:15;22.30;54.00
68719;DHT22;55696;52.138;5.444;2023-09-19T14:14:42;22.20;54.00
68719;DHT22;55696;52.138;5.444;2023-09-19T14:17:09;22.30;54.20
68719;DHT22;55696;52.138;5.444;2023-09-19T14:19:36;22.30;54.10
68719;DHT22;55696;52.138;5.444;2023-09-19T14:22:04;22.30;54.20
68719;DHT22;55696;52.138;5.444;2023-09-19T14:24:34;22.70;54.40
68719;DHT22;55696;52.138;5.444;2023-09-19T14:27:02;22.40;54.40
68719;DHT22;55696;52.138;5.444;2023-09-19T14:29:31;22.10;54.10
68719;DHT22;55696;52.138;5.444;2023-09-19T14:31:58;21.90;54.30
68719;DHT22;55696;52.138;5.444;2023-09-19T14:34:26;22.40;54.60
68719;DHT22;55696;52.138;5.444;2023-09-19T14:36:53;22.10;54.30
68719;DHT22;55696;52.138;5.444;2023-09-19T14:39:21;22.80;54.80
68719;DHT22;55696;52.138;5.444;2023-09-19T14:41:48;22.60;54.40
68719;DHT22;55696;52.138;5.444;2023-09-19T14:44:15;22.00;54.10
68719;DHT22;55696;52.138;5.444;2023-09-19T14:46:46;22.10;54.30
68719;DHT22;55696;52.138;5.444;2023-09-19T14:49:13;21.90;54.10
68719;DHT22;55696;52.138;5.444;2023-09-19T14:51:42;21.80;55.10
68719;DHT22;55696;52.138;5.444;2023-09-19T14:54:14;21.80;54.30
68719;DHT22;55696;52.138;5.444;2023-09-19T14:56:44;21.90;54.40
68719;DHT22;55696;52.138;5.444;2023-09-19T14:59:11;21.80;54.40
68719;DHT22;55696;52.138;5.444;2023-09-19T15:01:39;21.80;54.60
68719;DHT22;55696;52.138;5.444;2023-09-19T15:04:07;21.70;54.90
68719;DHT22;55696;52.138;5.444;2023-09-19T15:06:35;21.60;55.10
68719;DHT22;55696;52.138;5.444;2023-09-19T15:09:02;21.50;55.20
68719;DHT22;55696;52.138;5.444;2023-09-19T15:11:31;21.60;55.80
68719;DHT22;55696;52.138;5.444;2023-09-19T15:13:58;21.40;56.50
68719;DHT22;55696;52.138;5.444;2023-09-19T15:16:25;21.40;57.50
68719;DHT22;55696;52.138;5.444;2023-09-19T15:18:52;21.20;57.60
68719;DHT22;55696;52.138;5.444;2023-09-19T15:21:19;21.30;58.00
68719;DHT22;55696;52.138;5.444;2023-09-19T15:23:46;21.30;58.20
68719;DHT22;55696;52.138;5.444;2023-09-19T15:26:14;22.10;58.50
68719;DHT22;55696;52.138;5.444;2023-09-19T15:28:47;21.20;58.80
68719;DHT22;55696;52.138;5.444;2023-09-19T15:31:15;21.40;57.60
68719;DHT22;55696;52.138;5.444;2023-09-19T15:33:42;22.00;57.60
68719;DHT22;55696;52.138;5.444;2023-09-19T15:36:15;22.00;57.60
68719;DHT22;55696;52.138;5.444;2023-09-19T15:39:03;21.40;57.60
68719;DHT22;55696;52.138;5.444;2023-09-19T15:41:44;21.40;57.80
68719;DHT22;55696;52.138;5.444;2023-09-19T15:44:14;21.70;58.00
68719;DHT22;55696;52.138;5.444;2023-09-19T15:46:42;21.20;57.80
68719;DHT22;55696;52.138;5.444;2023-09-19T15:49:10;21.40;57.80
68719;DHT22;55696;52.138;5.444;2023-09-19T15:51:37;21.30;57.50
68719;DHT22;55696;52.138;5.444;2023-09-19T15:54:09;21.50;57.60
68719;DHT22;55696;52.138;5.444;2023-09-19T15:56:37;21.50;57.70
68719;DHT22;55696;52.138;5.444;2023-09-19T15:59:04;21.60;57.70
68719;DHT22;55696;52.138;5.444;2023-09-19T16:01:31;21.40;57.60
68719;DHT22;55696;52.138;5.444;2023-09-19T16:03:58;21.30;57.60
68719;DHT22;55696;52.138;5.444;2023-09-19T16:06:27;21.20;57.70
68719;DHT22;55696;52.138;5.444;2023-09-19T16:08:56;21.20;58.10
68719;DHT22;55696;52.138;5.444;2023-09-19T16:11:26;21.30;58.40
68719;DHT22;55696;52.138;5.444;2023-09-19T16:13:54;21.30;58.50
68719;DHT22;55696;52.138;5.444;2023-09-19T16:16:22;21.30;58.40
68719;DHT22;55696;52.138;5.444;2023-09-19T16:18:52;21.60;58.30
68719;DHT22;55696;52.138;5.444;2023-09-19T16:21:20;21.30;58.30
68719;DHT22;55696;52.138;5.444;2023-09-19T16:23:48;21.50;58.10
68719;DHT22;55696;52.138;5.444;2023-09-19T16:26:21;21.30;57.90
68719;DHT22;55696;52.138;5.444;2023-09-19T16:28:50;21.30;57.80
68719;DHT22;55696;52.138;5.444;2023-09-19T16:31:17;21.30;57.70
68719;DHT22;55696;52.138;5.444;2023-09-19T16:33:47;21.20;57.40
68719;DHT22;55696;52.138;5.444;2023-09-19T16:36:17;21.20;57.40
68719;DHT22;55696;52.138;5.444;2023-09-19T16:38:45;21.20;57.20